Terminal Aerodrome Forecast
Issued by NWS Pendleton, OR

Home | Current Version | Previous Version | Text Only | Print | Product List | Glossary On
Versions: 1 2 3 4 5 6 7 8 9 10 11 12 13 14 15
000
FTUS46 KPDT 221700
TAFPDT
TAF
KPDT 221728Z 2218/2318 34006KT P6SM OVC100
     FM222300 33008KT P6SM VCSH SCT060 BKN100
     FM230200 33008KT P6SM VCTS SCT060CB BKN120
      TEMPO 2302/2306 5SM -TSRA BKN040CB OVC100
     FM230600 27006KT P6SM VCSH SCT060 BKN100
     FM231000 14006KT P6SM BKN120=

USA.gov is the U.S. government's official web portal to all federal, state and local government web resources and services.